Valle Di Andalusia — IBTJ — position and weather

sailwx.info

Track history (hours):
 
Tides and Currents Weather Stations Pressure Air Temp Water Temp Dewpoint Dewpoint Depression Visibility Wind Speed Wind Dir Waves Ship Positions

Valle Di Andalusia

Last reported at 2014-Oct-08 19:15 UTC. Time now 2014-Oct-23 00:46 UTC.
Position N 36°37' E 014°41'.
Warning: this ship's position is 14 days out of date.

Length 176 m; draft 11 m.

Type: Ship (hazmat cat A). MMSI: 247046200.

Date/timePositionNaut miles runAvg speedWind from/ knotsBaromVisibWave heightAir tempDewpointWater temp
2014-Oct-08 19:15N 36°37' E 014°41'1013.9
2014-Oct-08 18:33N 36°41' E 014°30'1414.2
2014-Oct-08 17:33N 36°48' E 014°15'1414.5
2014-Oct-08 16:33N 36°55' E 013°59'1414.4
2014-Oct-08 15:33N 37°01' E 013°42'16413.6
2014-Oct-08 03:26N 38°10' E 010°34'1213.5
2014-Oct-08 02:33N 38°14' E 010°20'1313.2
2014-Oct-08 01:33N 38°18' E 010°04'1313.1
2014-Oct-08 00:33N 38°22' E 009°48'1313.0
2014-Oct-07 23:33N 38°27' E 009°32'1313.1
2014-Oct-07 22:32N 38°32' E 009°16'1313.2
2014-Oct-07 21:32N 38°36' E 009°00'1313.2
2014-Oct-07 20:33N 38°42' E 008°45'1413.4
2014-Oct-07 19:31N 38°46' E 008°28'13513.5
2014-Oct-07 09:30N 39°41' E 005°50'1513.1
2014-Oct-07 08:20N 39°48' E 005°31'10813.4
2014-Oct-07 00:18N 40°29' E 003°21'1013.7
2014-Oct-06 23:34N 40°33' E 003°09'1413.8
2014-Oct-06 22:33N 40°38' E 002°51'1413.9
2014-Oct-06 21:33N 40°42' E 002°34'1413.9
2014-Oct-06 20:33N 40°47' E 002°17'1413.7
2014-Oct-06 19:33N 40°51' E 001°60'1313.1
2014-Oct-06 18:33N 40°55' E 001°43'25 0.7
2014-Oct-05 07:30N 41°06' E 001°13'0 0.0
2014-Oct-04 17:13N 41°06' E 001°13'0 0.0
2014-Oct-04 16:31N 41°06' E 001°13'0 0.0
2014-Oct-04 08:27N 41°06' E 001°13'0 0.0
2014-Oct-04 07:33N 41°06' E 001°13'0 0.0
2014-Oct-04 06:33N 41°06' E 001°13'0 0.0
2014-Oct-04 04:32N 41°06' E 001°13'0 0.0
2014-Oct-04 03:19N 41°06' E 001°13'0 0.0
2014-Oct-04 02:25N 41°06' E 001°13'0 0.0
2014-Oct-03 13:31N 41°06' E 001°13'0 0.0
2014-Oct-03 10:06N 41°06' E 001°13'0 0.0
2014-Oct-03 09:30N 41°06' E 001°13'0 0.0
2014-Oct-03 08:17N 41°06' E 001°13'0 0.0
2014-Oct-03 07:23N 41°06' E 001°13'0 0.0
2014-Oct-03 06:16N 41°06' E 001°13'0 0.0
2014-Oct-03 05:28N 41°06' E 001°13'0 0.0
2014-Oct-03 03:27N 41°06' E 001°13'0 0.0
2014-Oct-03 00:32N 41°06' E 001°13'0 0.0
2014-Oct-02 12:10N 41°06' E 001°13'0 0.0
2014-Oct-02 11:28N 41°06' E 001°13'0 0.1
2014-Oct-02 10:28N 41°06' E 001°13'4 4.8
2014-Oct-02 09:33N 41°02' E 001°16'1212.4
2014-Oct-02 08:33N 40°57' E 001°31'1 1.1
2014-Oct-02 07:34N 40°57' E 001°33'0 0.2
2014-Oct-02 06:34N 40°57' E 001°33'0 0.0
2014-Oct-02 05:33N 40°57' E 001°33'4 4.1
2014-Oct-02 04:33N 40°59' E 001°38'1313.2
2014-Oct-02 03:34N 41°00' E 001°55'1313.1
2014-Oct-02 02:33N 41°02' E 002°12'1212.4
2014-Oct-02 01:33N 41°07' E 002°28'1313.1
2014-Oct-02 00:33N 41°16' E 002°40'1413.5
2014-Oct-01 23:33N 41°25' E 002°53'1313.3
2014-Oct-01 22:33N 41°34' E 003°06'1613.1
2014-Oct-01 21:18N 41°46' E 003°22'1413.0
2014-Oct-01 20:15N 41°57' E 003°33'1013.2
2014-Oct-01 19:29N 42°06' E 003°39'1913.5
2014-Oct-01 18:04N 42°23' E 003°51'813.3
2014-Oct-01 17:26N 42°30' E 003°57'1212.9
2014-Oct-01 16:32N 42°41' E 004°03'1312.6
2014-Oct-01 15:31N 42°53' E 004°02'1411.7
2014-Oct-01 14:22N 43°07' E 003°59'0 0.5
2014-Oct-01 13:33N 43°07' E 003°58'0 0.4
2014-Oct-01 12:32N 43°07' E 003°58'6 6.2
2014-Oct-01 11:33N 43°13' E 003°55'1312.9
2014-Oct-01 10:31N 43°24' E 003°45'0 0.4
2014-Oct-01 09:31N 43°24' E 003°45'0 0.0
2014-Oct-01 06:10N 43°24' E 003°45'0 0.0
2014-Oct-01 05:27N 43°24' E 003°45'0 0.0
2014-Oct-01 04:29N 43°24' E 003°45'0 0.0
2014-Oct-01 03:33N 43°24' E 003°45'0 0.0
2014-Oct-01 02:33N 43°24' E 003°45'0 0.0
2014-Oct-01 00:13N 43°24' E 003°45'0 0.0
2014-Sep-30 23:32N 43°24' E 003°45'0 0.0
2014-Sep-30 16:15N 43°24' E 003°45'0 0.0
2014-Sep-30 14:11N 43°24' E 003°45'0 0.0
2014-Sep-30 13:24N 43°24' E 003°45'0 0.0
2014-Sep-30 09:14N 43°24' E 003°45'0 0.3
2014-Sep-30 08:33N 43°24' E 003°45'2 2.5
2014-Sep-30 07:33N 43°22' E 003°43'0 0.0
2014-Sep-29 16:11N 43°22' E 003°43'0 0.0
2014-Sep-29 15:15N 43°22' E 003°43'0 0.0
2014-Sep-29 14:18N 43°22' E 003°43'  
Track history (hours):
 
Tides and Currents Weather Stations Pressure Air Temp Water Temp Dewpoint Dewpoint Depression Visibility Wind Speed Wind Dir Waves Ship Positions

Valle Di Andalusia

Last reported at 2014-Oct-08 19:15 UTC. Time now 2014-Oct-23 00:46 UTC.
Position N 36°37' E 014°41'.
Warning: this ship's position is 14 days out of date.

Length 176 m; draft 11 m.

Type: Ship (hazmat cat A). MMSI: 247046200.

Date/timePositionNaut miles runAvg speedWind from/ knotsBaromVisibWave heightAir tempDewpointWater temp
2014-Oct-08 19:15N 36°37' E 014°41'1013.9
2014-Oct-08 18:33N 36°41' E 014°30'1414.2
2014-Oct-08 17:33N 36°48' E 014°15'1414.5
2014-Oct-08 16:33N 36°55' E 013°59'1414.4
2014-Oct-08 15:33N 37°01' E 013°42'16413.6
2014-Oct-08 03:26N 38°10' E 010°34'1213.5
2014-Oct-08 02:33N 38°14' E 010°20'1313.2
2014-Oct-08 01:33N 38°18' E 010°04'1313.1
2014-Oct-08 00:33N 38°22' E 009°48'1313.0
2014-Oct-07 23:33N 38°27' E 009°32'1313.1
2014-Oct-07 22:32N 38°32' E 009°16'1313.2
2014-Oct-07 21:32N 38°36' E 009°00'1313.2
2014-Oct-07 20:33N 38°42' E 008°45'1413.4
2014-Oct-07 19:31N 38°46' E 008°28'13513.5
2014-Oct-07 09:30N 39°41' E 005°50'1513.1
2014-Oct-07 08:20N 39°48' E 005°31'10813.4
2014-Oct-07 00:18N 40°29' E 003°21'1013.7
2014-Oct-06 23:34N 40°33' E 003°09'1413.8
2014-Oct-06 22:33N 40°38' E 002°51'1413.9
2014-Oct-06 21:33N 40°42' E 002°34'1413.9
2014-Oct-06 20:33N 40°47' E 002°17'1413.7
2014-Oct-06 19:33N 40°51' E 001°60'1313.1
2014-Oct-06 18:33N 40°55' E 001°43'25 0.7
2014-Oct-05 07:30N 41°06' E 001°13'0 0.0
2014-Oct-04 17:13N 41°06' E 001°13'0 0.0
2014-Oct-04 16:31N 41°06' E 001°13'0 0.0
2014-Oct-04 08:27N 41°06' E 001°13'0 0.0
2014-Oct-04 07:33N 41°06' E 001°13'0 0.0
2014-Oct-04 06:33N 41°06' E 001°13'0 0.0
2014-Oct-04 04:32N 41°06' E 001°13'0 0.0
2014-Oct-04 03:19N 41°06' E 001°13'0 0.0
2014-Oct-04 02:25N 41°06' E 001°13'0 0.0
2014-Oct-03 13:31N 41°06' E 001°13'0 0.0
2014-Oct-03 10:06N 41°06' E 001°13'0 0.0
2014-Oct-03 09:30N 41°06' E 001°13'0 0.0
2014-Oct-03 08:17N 41°06' E 001°13'0 0.0
2014-Oct-03 07:23N 41°06' E 001°13'0 0.0
2014-Oct-03 06:16N 41°06' E 001°13'0 0.0
2014-Oct-03 05:28N 41°06' E 001°13'0 0.0
2014-Oct-03 03:27N 41°06' E 001°13'0 0.0
2014-Oct-03 00:32N 41°06' E 001°13'0 0.0
2014-Oct-02 12:10N 41°06' E 001°13'0 0.0
2014-Oct-02 11:28N 41°06' E 001°13'0 0.1
2014-Oct-02 10:28N 41°06' E 001°13'4 4.8
2014-Oct-02 09:33N 41°02' E 001°16'1212.4
2014-Oct-02 08:33N 40°57' E 001°31'1 1.1
2014-Oct-02 07:34N 40°57' E 001°33'0 0.2
2014-Oct-02 06:34N 40°57' E 001°33'0 0.0
2014-Oct-02 05:33N 40°57' E 001°33'4 4.1
2014-Oct-02 04:33N 40°59' E 001°38'1313.2
2014-Oct-02 03:34N 41°00' E 001°55'1313.1
2014-Oct-02 02:33N 41°02' E 002°12'1212.4
2014-Oct-02 01:33N 41°07' E 002°28'1313.1
2014-Oct-02 00:33N 41°16' E 002°40'1413.5
2014-Oct-01 23:33N 41°25' E 002°53'1313.3
2014-Oct-01 22:33N 41°34' E 003°06'1613.1
2014-Oct-01 21:18N 41°46' E 003°22'1413.0
2014-Oct-01 20:15N 41°57' E 003°33'1013.2
2014-Oct-01 19:29N 42°06' E 003°39'1913.5
2014-Oct-01 18:04N 42°23' E 003°51'813.3
2014-Oct-01 17:26N 42°30' E 003°57'1212.9
2014-Oct-01 16:32N 42°41' E 004°03'1312.6
2014-Oct-01 15:31N 42°53' E 004°02'1411.7
2014-Oct-01 14:22N 43°07' E 003°59'0 0.5
2014-Oct-01 13:33N 43°07' E 003°58'0 0.4
2014-Oct-01 12:32N 43°07' E 003°58'6 6.2
2014-Oct-01 11:33N 43°13' E 003°55'1312.9
2014-Oct-01 10:31N 43°24' E 003°45'0 0.4
2014-Oct-01 09:31N 43°24' E 003°45'0 0.0
2014-Oct-01 06:10N 43°24' E 003°45'0 0.0
2014-Oct-01 05:27N 43°24' E 003°45'0 0.0
2014-Oct-01 04:29N 43°24' E 003°45'0 0.0
2014-Oct-01 03:33N 43°24' E 003°45'0 0.0
2014-Oct-01 02:33N 43°24' E 003°45'0 0.0
2014-Oct-01 00:13N 43°24' E 003°45'0 0.0
2014-Sep-30 23:32N 43°24' E 003°45'0 0.0
2014-Sep-30 16:15N 43°24' E 003°45'0 0.0
2014-Sep-30 14:11N 43°24' E 003°45'0 0.0
2014-Sep-30 13:24N 43°24' E 003°45'0 0.0
2014-Sep-30 09:14N 43°24' E 003°45'0 0.3
2014-Sep-30 08:33N 43°24' E 003°45'2 2.5
2014-Sep-30 07:33N 43°22' E 003°43'0 0.0
2014-Sep-29 16:11N 43°22' E 003°43'0 0.0
2014-Sep-29 15:15N 43°22' E 003°43'0 0.0
2014-Sep-29 14:18N 43°22' E 003°43'  

Dump ship's entire track history